sensor_id;sensor_type;location;lat;lon;timestamp;temperature;humidity
25914;DHT22;13718;50.922;5.346;2023-04-15T00:00:38;7.70;99.90
25914;DHT22;13718;50.922;5.346;2023-04-15T00:03:03;7.70;99.90
25914;DHT22;13718;50.922;5.346;2023-04-15T00:05:33;7.70;99.90
25914;DHT22;13718;50.922;5.346;2023-04-15T00:08:00;7.70;99.90
25914;DHT22;13718;50.922;5.346;2023-04-15T00:10:26;7.80;99.90
25914;DHT22;13718;50.922;5.346;2023-04-15T00:12:52;7.90;99.90
25914;DHT22;13718;50.922;5.346;2023-04-15T00:15:18;8.10;99.90
25914;DHT22;13718;50.922;5.346;2023-04-15T00:17:43;8.10;99.90
25914;DHT22;13718;50.922;5.346;2023-04-15T00:20:09;8.20;99.90
25914;DHT22;13718;50.922;5.346;2023-04-15T00:22:35;8.10;99.90
25914;DHT22;13718;50.922;5.346;2023-04-15T00:25:01;8.00;99.90
25914;DHT22;13718;50.922;5.346;2023-04-15T00:27:26;8.00;99.90
25914;DHT22;13718;50.922;5.346;2023-04-15T00:29:52;8.00;99.90
25914;DHT22;13718;50.922;5.346;2023-04-15T00:32:18;8.00;99.90
25914;DHT22;13718;50.922;5.346;2023-04-15T00:34:45;7.90;99.90
25914;DHT22;13718;50.922;5.346;2023-04-15T00:37:11;7.90;99.90
25914;DHT22;13718;50.922;5.346;2023-04-15T00:39:37;8.00;99.90
25914;DHT22;13718;50.922;5.346;2023-04-15T00:42:06;8.10;99.90
25914;DHT22;13718;50.922;5.346;2023-04-15T00:44:32;8.20;99.90
25914;DHT22;13718;50.922;5.346;2023-04-15T00:46:59;8.20;99.90
25914;DHT22;13718;50.922;5.346;2023-04-15T00:49:24;8.20;99.90
25914;DHT22;13718;50.922;5.346;2023-04-15T00:51:51;8.20;99.90
25914;DHT22;13718;50.922;5.346;2023-04-15T00:54:17;8.20;99.90
25914;DHT22;13718;50.922;5.346;2023-04-15T00:56:42;8.30;99.90
25914;DHT22;13718;50.922;5.346;2023-04-15T00:59:08;8.40;99.90
25914;DHT22;13718;50.922;5.346;2023-04-15T01:01:35;8.50;99.90
25914;DHT22;13718;50.922;5.346;2023-04-15T01:04:01;8.60;99.90
25914;DHT22;13718;50.922;5.346;2023-04-15T01:06:28;8.70;99.90
25914;DHT22;13718;50.922;5.346;2023-04-15T01:08:54;8.70;99.90
25914;DHT22;13718;50.922;5.346;2023-04-15T01:11:20;8.70;99.90
25914;DHT22;13718;50.922;5.346;2023-04-15T01:13:48;8.70;99.90
25914;DHT22;13718;50.922;5.346;2023-04-15T01:16:14;8.70;99.90
25914;DHT22;13718;50.922;5.346;2023-04-15T01:18:41;8.70;99.90
25914;DHT22;13718;50.922;5.346;2023-04-15T01:21:06;8.70;99.90
25914;DHT22;13718;50.922;5.346;2023-04-15T01:23:35;8.80;99.90
25914;DHT22;13718;50.922;5.346;2023-04-15T01:26:02;8.90;99.90
25914;DHT22;13718;50.922;5.346;2023-04-15T01:28:28;9.10;99.90
25914;DHT22;13718;50.922;5.346;2023-04-15T01:31:11;9.10;99.90
25914;DHT22;13718;50.922;5.346;2023-04-15T01:33:38;9.10;99.90
25914;DHT22;13718;50.922;5.346;2023-04-15T01:36:05;9.00;99.90
25914;DHT22;13718;50.922;5.346;2023-04-15T01:38:33;9.10;99.90
25914;DHT22;13718;50.922;5.346;2023-04-15T01:40:59;9.10;99.90
25914;DHT22;13718;50.922;5.346;2023-04-15T01:43:25;9.10;99.90
25914;DHT22;13718;50.922;5.346;2023-04-15T01:45:51;9.10;99.90
25914;DHT22;13718;50.922;5.346;2023-04-15T01:48:17;9.20;99.90
25914;DHT22;13718;50.922;5.346;2023-04-15T01:50:43;9.30;99.90
25914;DHT22;13718;50.922;5.346;2023-04-15T01:53:08;9.40;99.90
25914;DHT22;13718;50.922;5.346;2023-04-15T01:55:34;9.40;99.90
25914;DHT22;13718;50.922;5.346;2023-04-15T01:58:00;9.30;99.90
25914;DHT22;13718;50.922;5.346;2023-04-15T02:00:25;9.20;99.90
25914;DHT22;13718;50.922;5.346;2023-04-15T02:02:51;9.10;99.90
25914;DHT22;13718;50.922;5.346;2023-04-15T02:05:17;9.00;99.90
25914;DHT22;13718;50.922;5.346;2023-04-15T02:07:43;9.00;99.90
25914;DHT22;13718;50.922;5.346;2023-04-15T02:10:08;8.90;99.90
25914;DHT22;13718;50.922;5.346;2023-04-15T02:12:35;8.90;99.90
25914;DHT22;13718;50.922;5.346;2023-04-15T02:15:00;8.90;99.90
25914;DHT22;13718;50.922;5.346;2023-04-15T02:17:26;9.00;99.90
25914;DHT22;13718;50.922;5.346;2023-04-15T02:19:52;9.00;99.90
25914;DHT22;13718;50.922;5.346;2023-04-15T02:22:18;9.00;99.90
25914;DHT22;13718;50.922;5.346;2023-04-15T02:24:43;8.90;99.90
25914;DHT22;13718;50.922;5.346;2023-04-15T02:27:13;8.90;99.90
25914;DHT22;13718;50.922;5.346;2023-04-15T02:29:39;9.00;99.90
25914;DHT22;13718;50.922;5.346;2023-04-15T02:32:05;9.00;99.90
25914;DHT22;13718;50.922;5.346;2023-04-15T02:34:31;9.10;99.90
25914;DHT22;13718;50.922;5.346;2023-04-15T02:36:58;9.10;99.90
25914;DHT22;13718;50.922;5.346;2023-04-15T02:39:23;9.20;99.90
25914;DHT22;13718;50.922;5.346;2023-04-15T02:41:49;9.10;99.90
25914;DHT22;13718;50.922;5.346;2023-04-15T02:44:18;9.20;99.90
25914;DHT22;13718;50.922;5.346;2023-04-15T02:46:48;9.20;99.90
25914;DHT22;13718;50.922;5.346;2023-04-15T02:49:17;9.20;99.90
25914;DHT22;13718;50.922;5.346;2023-04-15T02:51:42;9.20;99.90
25914;DHT22;13718;50.922;5.346;2023-04-15T02:54:09;9.20;99.90
25914;DHT22;13718;50.922;5.346;2023-04-15T02:56:35;9.10;99.90
25914;DHT22;13718;50.922;5.346;2023-04-15T02:59:00;9.10;99.90
25914;DHT22;13718;50.922;5.346;2023-04-15T03:01:26;9.10;99.90
25914;DHT22;13718;50.922;5.346;2023-04-15T03:03:51;9.10;99.90
25914;DHT22;13718;50.922;5.346;2023-04-15T03:06:17;9.10;99.90
25914;DHT22;13718;50.922;5.346;2023-04-15T03:08:43;9.10;99.90
25914;DHT22;13718;50.922;5.346;2023-04-15T03:11:08;9.10;99.90
25914;DHT22;13718;50.922;5.346;2023-04-15T03:13:34;9.10;99.90
25914;DHT22;13718;50.922;5.346;2023-04-15T03:16:00;9.00;99.90
25914;DHT22;13718;50.922;5.346;2023-04-15T03:18:25;9.00;99.90
25914;DHT22;13718;50.922;5.346;2023-04-15T03:20:51;9.00;99.90
25914;DHT22;13718;50.922;5.346;2023-04-15T03:23:16;9.00;99.90
25914;DHT22;13718;50.922;5.346;2023-04-15T03:25:44;9.00;99.90
25914;DHT22;13718;50.922;5.346;2023-04-15T03:28:09;9.00;99.90
25914;DHT22;13718;50.922;5.346;2023-04-15T03:30:35;9.10;99.90
25914;DHT22;13718;50.922;5.346;2023-04-15T03:33:00;9.10;99.90
25914;DHT22;13718;50.922;5.346;2023-04-15T03:35:26;9.10;99.90
25914;DHT22;13718;50.922;5.346;2023-04-15T03:37:52;9.20;99.90
25914;DHT22;13718;50.922;5.346;2023-04-15T03:40:17;9.20;99.90
25914;DHT22;13718;50.922;5.346;2023-04-15T03:42:43;9.10;99.90
25914;DHT22;13718;50.922;5.346;2023-04-15T03:45:09;9.00;99.90
25914;DHT22;13718;50.922;5.346;2023-04-15T03:47:35;9.00;99.90
25914;DHT22;13718;50.922;5.346;2023-04-15T03:50:00;9.00;99.90
25914;DHT22;13718;50.922;5.346;2023-04-15T03:52:26;9.00;99.90
25914;DHT22;13718;50.922;5.346;2023-04-15T03:54:51;9.00;99.90
25914;DHT22;13718;50.922;5.346;2023-04-15T03:57:17;9.00;99.90
25914;DHT22;13718;50.922;5.346;2023-04-15T03:59:43;9.10;99.90
25914;DHT22;13718;50.922;5.346;2023-04-15T04:02:08;9.20;99.90
25914;DHT22;13718;50.922;5.346;2023-04-15T04:04:34;9.30;99.90
25914;DHT22;13718;50.922;5.346;2023-04-15T04:06:59;9.20;99.90
25914;DHT22;13718;50.922;5.346;2023-04-15T04:09:25;9.30;99.90
25914;DHT22;13718;50.922;5.346;2023-04-15T04:11:52;9.30;99.90
25914;DHT22;13718;50.922;5.346;2023-04-15T04:14:17;9.20;99.90
25914;DHT22;13718;50.922;5.346;2023-04-15T04:16:43;9.20;99.90
25914;DHT22;13718;50.922;5.346;2023-04-15T04:19:09;9.10;99.90
25914;DHT22;13718;50.922;5.346;2023-04-15T04:21:35;9.10;99.90
25914;DHT22;13718;50.922;5.346;2023-04-15T04:24:01;9.10;99.90
25914;DHT22;13718;50.922;5.346;2023-04-15T04:26:26;9.20;99.90
25914;DHT22;13718;50.922;5.346;2023-04-15T04:28:52;9.20;99.90
25914;DHT22;13718;50.922;5.346;2023-04-15T04:31:18;9.10;99.90
25914;DHT22;13718;50.922;5.346;2023-04-15T04:33:43;9.10;99.90
25914;DHT22;13718;50.922;5.346;2023-04-15T04:36:09;9.10;99.90
25914;DHT22;13718;50.922;5.346;2023-04-15T04:38:34;9.10;99.90
25914;DHT22;13718;50.922;5.346;2023-04-15T04:41:00;9.10;99.90
25914;DHT22;13718;50.922;5.346;2023-04-15T04:43:26;9.20;99.90
25914;DHT22;13718;50.922;5.346;2023-04-15T04:45:52;9.20;99.90
25914;DHT22;13718;50.922;5.346;2023-04-15T04:48:17;9.20;99.90
25914;DHT22;13718;50.922;5.346;2023-04-15T04:50:43;9.20;99.90
25914;DHT22;13718;50.922;5.346;2023-04-15T04:53:09;9.20;99.90
25914;DHT22;13718;50.922;5.346;2023-04-15T04:55:35;9.20;99.90
25914;DHT22;13718;50.922;5.346;2023-04-15T04:58:01;9.20;99.90
25914;DHT22;13718;50.922;5.346;2023-04-15T05:00:27;9.20;99.90
25914;DHT22;13718;50.922;5.346;2023-04-15T05:02:54;9.10;99.90
25914;DHT22;13718;50.922;5.346;2023-04-15T05:05:19;9.10;99.90
25914;DHT22;13718;50.922;5.346;2023-04-15T05:07:45;9.10;99.90
25914;DHT22;13718;50.922;5.346;2023-04-15T05:10:12;9.20;99.90
25914;DHT22;13718;50.922;5.346;2023-04-15T05:12:39;9.20;99.90
25914;DHT22;13718;50.922;5.346;2023-04-15T05:15:05;9.20;99.90
25914;DHT22;13718;50.922;5.346;2023-04-15T05:17:31;9.20;99.90
25914;DHT22;13718;50.922;5.346;2023-04-15T05:19:57;9.30;99.90
25914;DHT22;13718;50.922;5.346;2023-04-15T05:22:23;9.30;99.90
25914;DHT22;13718;50.922;5.346;2023-04-15T05:24:48;9.40;99.90
25914;DHT22;13718;50.922;5.346;2023-04-15T05:27:14;9.40;99.90
25914;DHT22;13718;50.922;5.346;2023-04-15T05:29:40;9.40;99.90
25914;DHT22;13718;50.922;5.346;2023-04-15T05:32:06;9.30;99.90
25914;DHT22;13718;50.922;5.346;2023-04-15T05:34:31;9.40;99.90
25914;DHT22;13718;50.922;5.346;2023-04-15T05:36:57;9.40;99.90
25914;DHT22;13718;50.922;5.346;2023-04-15T05:39:22;9.40;99.90
25914;DHT22;13718;50.922;5.346;2023-04-15T05:41:48;9.50;99.90
25914;DHT22;13718;50.922;5.346;2023-04-15T05:44:14;9.50;99.90
25914;DHT22;13718;50.922;5.346;2023-04-15T05:46:39;9.50;99.90
25914;DHT22;13718;50.922;5.346;2023-04-15T05:49:06;9.60;99.90
25914;DHT22;13718;50.922;5.346;2023-04-15T05:51:31;9.60;99.90
25914;DHT22;13718;50.922;5.346;2023-04-15T05:53:57;9.70;99.90
25914;DHT22;13718;50.922;5.346;2023-04-15T05:56:22;9.90;99.90
25914;DHT22;13718;50.922;5.346;2023-04-15T05:58:48;10.00;99.90
25914;DHT22;13718;50.922;5.346;2023-04-15T06:01:13;10.00;99.90
25914;DHT22;13718;50.922;5.346;2023-04-15T06:03:39;10.00;99.90
25914;DHT22;13718;50.922;5.346;2023-04-15T06:06:05;10.00;99.90
25914;DHT22;13718;50.922;5.346;2023-04-15T06:08:32;10.10;99.90
25914;DHT22;13718;50.922;5.346;2023-04-15T06:10:57;10.10;99.90
25914;DHT22;13718;50.922;5.346;2023-04-15T06:13:23;10.20;99.90
25914;DHT22;13718;50.922;5.346;2023-04-15T06:15:49;10.20;99.90
25914;DHT22;13718;50.922;5.346;2023-04-15T06:18:14;10.20;99.90
25914;DHT22;13718;50.922;5.346;2023-04-15T06:20:40;10.20;99.90
25914;DHT22;13718;50.922;5.346;2023-04-15T06:23:06;10.30;99.90
25914;DHT22;13718;50.922;5.346;2023-04-15T06:25:31;10.30;99.90
25914;DHT22;13718;50.922;5.346;2023-04-15T06:27:57;10.40;99.90
25914;DHT22;13718;50.922;5.346;2023-04-15T06:30:23;10.50;99.90
25914;DHT22;13718;50.922;5.346;2023-04-15T06:32:48;10.80;99.90
25914;DHT22;13718;50.922;5.346;2023-04-15T06:35:14;10.90;99.90
25914;DHT22;13718;50.922;5.346;2023-04-15T06:37:40;11.20;99.90
25914;DHT22;13718;50.922;5.346;2023-04-15T06:40:06;11.50;99.90
25914;DHT22;13718;50.922;5.346;2023-04-15T06:42:33;11.90;99.90
25914;DHT22;13718;50.922;5.346;2023-04-15T06:44:59;12.10;99.90
25914;DHT22;13718;50.922;5.346;2023-04-15T06:47:25;12.50;99.90
25914;DHT22;13718;50.922;5.346;2023-04-15T06:49:51;12.90;99.90
25914;DHT22;13718;50.922;5.346;2023-04-15T06:52:16;12.90;99.90
25914;DHT22;13718;50.922;5.346;2023-04-15T06:54:42;13.00;99.90
25914;DHT22;13718;50.922;5.346;2023-04-15T06:57:07;13.40;99.90
25914;DHT22;13718;50.922;5.346;2023-04-15T06:59:34;13.50;99.90
25914;DHT22;13718;50.922;5.346;2023-04-15T07:01:59;13.40;99.90
25914;DHT22;13718;50.922;5.346;2023-04-15T07:04:25;13.50;99.90
25914;DHT22;13718;50.922;5.346;2023-04-15T07:06:52;13.80;99.90
25914;DHT22;13718;50.922;5.346;2023-04-15T07:09:18;14.00;99.90
25914;DHT22;13718;50.922;5.346;2023-04-15T07:11:44;14.50;99.90
25914;DHT22;13718;50.922;5.346;2023-04-15T07:14:10;15.20;99.90
25914;DHT22;13718;50.922;5.346;2023-04-15T07:16:35;15.80;99.40
25914;DHT22;13718;50.922;5.346;2023-04-15T07:19:01;16.40;97.60
25914;DHT22;13718;50.922;5.346;2023-04-15T07:21:27;16.60;96.40
25914;DHT22;13718;50.922;5.346;2023-04-15T07:23:52;16.50;95.80
25914;DHT22;13718;50.922;5.346;2023-04-15T07:26:18;16.60;94.90
25914;DHT22;13718;50.922;5.346;2023-04-15T07:28:43;16.40;94.80
25914;DHT22;13718;50.922;5.346;2023-04-15T07:31:10;16.40;94.70
25914;DHT22;13718;50.922;5.346;2023-04-15T07:33:36;16.50;94.70
25914;DHT22;13718;50.922;5.346;2023-04-15T07:36:02;16.50;93.70
25914;DHT22;13718;50.922;5.346;2023-04-15T07:38:28;16.50;93.60
25914;DHT22;13718;50.922;5.346;2023-04-15T07:40:54;16.90;94.00
25914;DHT22;13718;50.922;5.346;2023-04-15T07:43:20;17.40;93.70
25914;DHT22;13718;50.922;5.346;2023-04-15T07:45:46;17.90;91.80
25914;DHT22;13718;50.922;5.346;2023-04-15T07:48:12;18.30;90.50
25914;DHT22;13718;50.922;5.346;2023-04-15T07:50:37;18.60;90.40
25914;DHT22;13718;50.922;5.346;2023-04-15T07:53:03;19.40;87.60
25914;DHT22;13718;50.922;5.346;2023-04-15T07:55:30;19.70;84.40
25914;DHT22;13718;50.922;5.346;2023-04-15T07:57:55;19.40;84.10
25914;DHT22;13718;50.922;5.346;2023-04-15T08:00:21;19.70;83.10
25914;DHT22;13718;50.922;5.346;2023-04-15T08:02:48;19.80;83.20
25914;DHT22;13718;50.922;5.346;2023-04-15T08:05:14;20.10;81.60
25914;DHT22;13718;50.922;5.346;2023-04-15T08:07:40;20.90;80.10
25914;DHT22;13718;50.922;5.346;2023-04-15T08:10:06;21.90;78.10
25914;DHT22;13718;50.922;5.346;2023-04-15T08:12:32;22.20;74.70
25914;DHT22;13718;50.922;5.346;2023-04-15T08:14:58;22.20;73.70
25914;DHT22;13718;50.922;5.346;2023-04-15T08:17:24;21.90;74.00
25914;DHT22;13718;50.922;5.346;2023-04-15T08:19:49;21.60;74.60
25914;DHT22;13718;50.922;5.346;2023-04-15T08:22:16;21.00;75.40
25914;DHT22;13718;50.922;5.346;2023-04-15T08:24:41;20.80;77.90
25914;DHT22;13718;50.922;5.346;2023-04-15T08:27:07;20.50;77.90
25914;DHT22;13718;50.922;5.346;2023-04-15T08:29:33;20.20;78.40
25914;DHT22;13718;50.922;5.346;2023-04-15T08:31:59;20.20;79.10
25914;DHT22;13718;50.922;5.346;2023-04-15T08:34:26;20.00;80.30
25914;DHT22;13718;50.922;5.346;2023-04-15T08:36:53;20.90;79.00
25914;DHT22;13718;50.922;5.346;2023-04-15T08:39:19;21.50;77.00
25914;DHT22;13718;50.922;5.346;2023-04-15T08:41:59;21.90;74.30
25914;DHT22;13718;50.922;5.346;2023-04-15T08:44:28;21.70;74.30
25914;DHT22;13718;50.922;5.346;2023-04-15T08:46:55;21.30;76.20
25914;DHT22;13718;50.922;5.346;2023-04-15T08:49:23;21.10;75.30
25914;DHT22;13718;50.922;5.346;2023-04-15T08:51:51;21.00;75.40
25914;DHT22;13718;50.922;5.346;2023-04-15T08:54:17;20.60;77.40
25914;DHT22;13718;50.922;5.346;2023-04-15T08:56:43;20.70;77.10
25914;DHT22;13718;50.922;5.346;2023-04-15T08:59:10;21.00;75.90
25914;DHT22;13718;50.922;5.346;2023-04-15T09:01:37;20.90;76.00
25914;DHT22;13718;50.922;5.346;2023-04-15T09:04:02;20.90;76.00
25914;DHT22;13718;50.922;5.346;2023-04-15T09:06:31;21.50;76.10
25914;DHT22;13718;50.922;5.346;2023-04-15T09:08:56;21.70;74.30
25914;DHT22;13718;50.922;5.346;2023-04-15T09:11:22;21.70;73.60
25914;DHT22;13718;50.922;5.346;2023-04-15T09:13:48;21.40;73.80
25914;DHT22;13718;50.922;5.346;2023-04-15T09:16:14;20.40;74.40
25914;DHT22;13718;50.922;5.346;2023-04-15T09:18:40;19.30;78.30
25914;DHT22;13718;50.922;5.346;2023-04-15T09:21:14;18.50;79.00
25914;DHT22;13718;50.922;5.346;2023-04-15T09:23:52;17.70;81.00
25914;DHT22;13718;50.922;5.346;2023-04-15T09:26:18;17.00;84.30
25914;DHT22;13718;50.922;5.346;2023-04-15T09:28:44;16.80;84.10
25914;DHT22;13718;50.922;5.346;2023-04-15T09:31:10;16.70;87.00
25914;DHT22;13718;50.922;5.346;2023-04-15T09:33:35;16.70;86.80
25914;DHT22;13718;50.922;5.346;2023-04-15T09:36:18;16.50;87.40
25914;DHT22;13718;50.922;5.346;2023-04-15T09:38:55;16.10;90.00
25914;DHT22;13718;50.922;5.346;2023-04-15T09:41:21;16.10;87.50
25914;DHT22;13718;50.922;5.346;2023-04-15T09:43:48;16.00;89.50
25914;DHT22;13718;50.922;5.346;2023-04-15T09:46:13;15.80;87.60
25914;DHT22;13718;50.922;5.346;2023-04-15T09:48:39;15.60;89.20
25914;DHT22;13718;50.922;5.346;2023-04-15T09:51:05;15.40;90.00
25914;DHT22;13718;50.922;5.346;2023-04-15T09:53:33;15.50;90.50
25914;DHT22;13718;50.922;5.346;2023-04-15T09:55:59;15.40;87.80
25914;DHT22;13718;50.922;5.346;2023-04-15T09:58:27;15.40;88.10
25914;DHT22;13718;50.922;5.346;2023-04-15T10:00:57;15.60;88.10
25914;DHT22;13718;50.922;5.346;2023-04-15T10:03:27;15.80;88.30
25914;DHT22;13718;50.922;5.346;2023-04-15T10:05:55;16.00;87.90
25914;DHT22;13718;50.922;5.346;2023-04-15T10:08:28;15.80;88.10
25914;DHT22;13718;50.922;5.346;2023-04-15T10:10:55;15.60;88.20
25914;DHT22;13718;50.922;5.346;2023-04-15T10:13:24;15.50;89.90
25914;DHT22;13718;50.922;5.346;2023-04-15T10:15:58;15.60;90.20
25914;DHT22;13718;50.922;5.346;2023-04-15T10:18:27;15.80;82.00
25914;DHT22;13718;50.922;5.346;2023-04-15T10:20:53;15.60;81.30
25914;DHT22;13718;50.922;5.346;2023-04-15T10:23:21;15.50;81.20
25914;DHT22;13718;50.922;5.346;2023-04-15T10:25:48;15.70;84.60
25914;DHT22;13718;50.922;5.346;2023-04-15T10:28:16;16.00;85.30
25914;DHT22;13718;50.922;5.346;2023-04-15T10:30:42;16.00;81.50
25914;DHT22;13718;50.922;5.346;2023-04-15T10:33:08;15.60;75.20
25914;DHT22;13718;50.922;5.346;2023-04-15T10:35:35;15.40;76.70
25914;DHT22;13718;50.922;5.346;2023-04-15T10:38:01;15.60;78.70
25914;DHT22;13718;50.922;5.346;2023-04-15T10:40:28;15.40;77.60
25914;DHT22;13718;50.922;5.346;2023-04-15T10:42:58;15.20;79.80
25914;DHT22;13718;50.922;5.346;2023-04-15T10:45:35;15.20;81.90
25914;DHT22;13718;50.922;5.346;2023-04-15T10:48:04;15.10;85.30
25914;DHT22;13718;50.922;5.346;2023-04-15T10:50:31;15.20;84.30
25914;DHT22;13718;50.922;5.346;2023-04-15T10:52:58;15.20;80.20
25914;DHT22;13718;50.922;5.346;2023-04-15T10:55:25;15.30;84.60
25914;DHT22;13718;50.922;5.346;2023-04-15T10:57:57;15.70;82.10
25914;DHT22;13718;50.922;5.346;2023-04-15T11:00:27;15.60;84.40
25914;DHT22;13718;50.922;5.346;2023-04-15T11:02:58;15.50;85.70
25914;DHT22;13718;50.922;5.346;2023-04-15T11:05:53;15.40;87.00
25914;DHT22;13718;50.922;5.346;2023-04-15T11:08:54;15.30;86.30
25914;DHT22;13718;50.922;5.346;2023-04-15T11:11:21;15.40;87.00
25914;DHT22;13718;50.922;5.346;2023-04-15T11:13:49;15.60;88.10
25914;DHT22;13718;50.922;5.346;2023-04-15T11:16:15;15.30;88.70
25914;DHT22;13718;50.922;5.346;2023-04-15T11:18:40;15.00;84.80
25914;DHT22;13718;50.922;5.346;2023-04-15T11:21:07;15.00;85.20
25914;DHT22;13718;50.922;5.346;2023-04-15T11:23:41;15.00;87.90
25914;DHT22;13718;50.922;5.346;2023-04-15T11:26:11;14.80;89.50
25914;DHT22;13718;50.922;5.346;2023-04-15T11:28:39;14.90;87.40
25914;DHT22;13718;50.922;5.346;2023-04-15T11:31:10;15.00;87.40
25914;DHT22;13718;50.922;5.346;2023-04-15T11:33:37;15.00;87.60
25914;DHT22;13718;50.922;5.346;2023-04-15T11:36:03;14.90;89.20
25914;DHT22;13718;50.922;5.346;2023-04-15T11:38:29;15.00;89.70
25914;DHT22;13718;50.922;5.346;2023-04-15T11:40:56;15.00;86.50
25914;DHT22;13718;50.922;5.346;2023-04-15T11:43:22;15.20;85.90
25914;DHT22;13718;50.922;5.346;2023-04-15T11:48:14;15.40;85.40
25914;DHT22;13718;50.922;5.346;2023-04-15T11:50:40;15.20;86.20
25914;DHT22;13718;50.922;5.346;2023-04-15T11:53:07;15.30;88.20
25914;DHT22;13718;50.922;5.346;2023-04-15T11:55:49;15.30;87.70
25914;DHT22;13718;50.922;5.346;2023-04-15T12:11:20;15.10;85.60
25914;DHT22;13718;50.922;5.346;2023-04-15T12:16:58;15.40;87.00
25914;DHT22;13718;50.922;5.346;2023-04-15T12:19:31;15.30;83.10
25914;DHT22;13718;50.922;5.346;2023-04-15T12:22:19;15.20;78.60
25914;DHT22;13718;50.922;5.346;2023-04-15T12:24:45;15.10;80.20
25914;DHT22;13718;50.922;5.346;2023-04-15T12:27:15;15.30;82.00
25914;DHT22;13718;50.922;5.346;2023-04-15T12:29:42;15.50;82.70
25914;DHT22;13718;50.922;5.346;2023-04-15T12:32:12;15.60;81.60
25914;DHT22;13718;50.922;5.346;2023-04-15T12:34:44;15.50;82.80
25914;DHT22;13718;50.922;5.346;2023-04-15T12:37:11;15.50;84.20
25914;DHT22;13718;50.922;5.346;2023-04-15T12:39:39;15.70;82.80
25914;DHT22;13718;50.922;5.346;2023-04-15T12:42:06;15.70;82.10
25914;DHT22;13718;50.922;5.346;2023-04-15T12:44:32;15.80;81.30
25914;DHT22;13718;50.922;5.346;2023-04-15T12:46:58;15.80;70.70
25914;DHT22;13718;50.922;5.346;2023-04-15T12:49:25;15.70;72.80
25914;DHT22;13718;50.922;5.346;2023-04-15T12:51:53;15.60;73.10
25914;DHT22;13718;50.922;5.346;2023-04-15T12:54:19;15.50;73.00
25914;DHT22;13718;50.922;5.346;2023-04-15T12:56:46;15.60;73.80
25914;DHT22;13718;50.922;5.346;2023-04-15T12:59:13;15.80;72.30
25914;DHT22;13718;50.922;5.346;2023-04-15T13:01:39;15.60;75.90
25914;DHT22;13718;50.922;5.346;2023-04-15T13:04:05;15.60;78.70
25914;DHT22;13718;50.922;5.346;2023-04-15T13:06:31;15.60;79.10
25914;DHT22;13718;50.922;5.346;2023-04-15T13:09:01;15.60;81.90
25914;DHT22;13718;50.922;5.346;2023-04-15T13:11:28;15.70;81.20
25914;DHT22;13718;50.922;5.346;2023-04-15T13:13:56;15.60;78.10
25914;DHT22;13718;50.922;5.346;2023-04-15T13:16:22;15.60;80.30
25914;DHT22;13718;50.922;5.346;2023-04-15T13:18:48;15.90;79.90
25914;DHT22;13718;50.922;5.346;2023-04-15T13:21:13;16.10;80.30
25914;DHT22;13718;50.922;5.346;2023-04-15T13:23:43;16.20;78.40
25914;DHT22;13718;50.922;5.346;2023-04-15T13:26:08;16.20;77.90
25914;DHT22;13718;50.922;5.346;2023-04-15T13:28:34;16.20;80.20
25914;DHT22;13718;50.922;5.346;2023-04-15T13:31:00;16.10;78.70
25914;DHT22;13718;50.922;5.346;2023-04-15T13:33:26;16.20;78.70
25914;DHT22;13718;50.922;5.346;2023-04-15T13:35:52;16.40;77.80
25914;DHT22;13718;50.922;5.346;2023-04-15T13:38:18;16.40;78.50
25914;DHT22;13718;50.922;5.346;2023-04-15T13:40:43;16.50;78.90
25914;DHT22;13718;50.922;5.346;2023-04-15T13:43:09;16.70;77.10
25914;DHT22;13718;50.922;5.346;2023-04-15T13:45:35;16.70;78.60
25914;DHT22;13718;50.922;5.346;2023-04-15T13:48:01;16.50;78.30
25914;DHT22;13718;50.922;5.346;2023-04-15T13:50:27;16.50;80.70
25914;DHT22;13718;50.922;5.346;2023-04-15T13:52:53;16.40;81.90
25914;DHT22;13718;50.922;5.346;2023-04-15T13:55:19;16.40;82.10
25914;DHT22;13718;50.922;5.346;2023-04-15T13:57:45;16.20;82.20
25914;DHT22;13718;50.922;5.346;2023-04-15T14:00:11;16.20;84.00
25914;DHT22;13718;50.922;5.346;2023-04-15T14:02:36;16.10;80.90
25914;DHT22;13718;50.922;5.346;2023-04-15T14:05:02;16.20;81.20
25914;DHT22;13718;50.922;5.346;2023-04-15T14:07:29;16.30;82.40
25914;DHT22;13718;50.922;5.346;2023-04-15T14:09:55;16.40;79.20
25914;DHT22;13718;50.922;5.346;2023-04-15T14:12:21;16.40;79.70
25914;DHT22;13718;50.922;5.346;2023-04-15T14:14:47;16.40;81.70
25914;DHT22;13718;50.922;5.346;2023-04-15T14:17:12;16.50;81.80
25914;DHT22;13718;50.922;5.346;2023-04-15T14:19:38;16.40;81.80
25914;DHT22;13718;50.922;5.346;2023-04-15T14:22:04;16.60;82.40
25914;DHT22;13718;50.922;5.346;2023-04-15T14:24:30;16.70;80.20
25914;DHT22;13718;50.922;5.346;2023-04-15T14:26:56;16.40;80.70
25914;DHT22;13718;50.922;5.346;2023-04-15T14:29:22;16.20;83.40
25914;DHT22;13718;50.922;5.346;2023-04-15T14:31:48;16.20;85.10
25914;DHT22;13718;50.922;5.346;2023-04-15T14:34:15;16.00;85.70
25914;DHT22;13718;50.922;5.346;2023-04-15T14:36:41;16.00;84.20
25914;DHT22;13718;50.922;5.346;2023-04-15T14:39:07;16.10;83.50
25914;DHT22;13718;50.922;5.346;2023-04-15T14:41:33;16.20;83.70
25914;DHT22;13718;50.922;5.346;2023-04-15T14:44:00;16.10;84.50
25914;DHT22;13718;50.922;5.346;2023-04-15T14:46:26;16.20;84.70
25914;DHT22;13718;50.922;5.346;2023-04-15T14:48:52;15.90;84.10
25914;DHT22;13718;50.922;5.346;2023-04-15T14:51:18;15.70;85.20
25914;DHT22;13718;50.922;5.346;2023-04-15T14:53:44;15.80;86.30
25914;DHT22;13718;50.922;5.346;2023-04-15T14:56:10;16.10;86.80
25914;DHT22;13718;50.922;5.346;2023-04-15T14:58:36;16.10;86.70
25914;DHT22;13718;50.922;5.346;2023-04-15T15:01:03;16.10;86.20
25914;DHT22;13718;50.922;5.346;2023-04-15T15:03:29;16.00;86.30
25914;DHT22;13718;50.922;5.346;2023-04-15T15:05:55;15.90;86.60
25914;DHT22;13718;50.922;5.346;2023-04-15T15:08:22;16.00;87.00
25914;DHT22;13718;50.922;5.346;2023-04-15T15:10:48;16.00;86.20
25914;DHT22;13718;50.922;5.346;2023-04-15T15:13:14;15.90;86.70
25914;DHT22;13718;50.922;5.346;2023-04-15T15:15:40;15.90;87.90
25914;DHT22;13718;50.922;5.346;2023-04-15T15:18:06;16.00;88.40
25914;DHT22;13718;50.922;5.346;2023-04-15T15:20:32;16.10;88.10
25914;DHT22;13718;50.922;5.346;2023-04-15T15:22:59;16.20;86.10
25914;DHT22;13718;50.922;5.346;2023-04-15T15:25:25;16.00;87.40
25914;DHT22;13718;50.922;5.346;2023-04-15T15:27:51;15.80;88.60
25914;DHT22;13718;50.922;5.346;2023-04-15T15:30:16;15.90;86.40
25914;DHT22;13718;50.922;5.346;2023-04-15T15:32:42;16.10;84.70
25914;DHT22;13718;50.922;5.346;2023-04-15T15:35:09;15.90;84.70
25914;DHT22;13718;50.922;5.346;2023-04-15T15:37:35;15.80;85.30
25914;DHT22;13718;50.922;5.346;2023-04-15T15:40:05;15.70;86.60
25914;DHT22;13718;50.922;5.346;2023-04-15T15:42:32;15.70;86.90
25914;DHT22;13718;50.922;5.346;2023-04-15T15:44:58;15.50;88.50
25914;DHT22;13718;50.922;5.346;2023-04-15T15:47:23;15.40;88.00
25914;DHT22;13718;50.922;5.346;2023-04-15T15:49:51;15.20;87.70
25914;DHT22;13718;50.922;5.346;2023-04-15T15:52:17;15.00;87.10